createdAt,value
2022-11-25T00:01:05.292Z,101337.16
2022-11-25T00:03:33.332Z,101336.94
2022-11-25T00:06:14.415Z,101329.44
2022-11-25T00:08:43.306Z,101335.06
2022-11-25T00:11:11.620Z,101336.81
2022-11-25T00:13:40.476Z,101327.97
2022-11-25T00:16:10.995Z,101328.38
2022-11-25T00:18:39.911Z,101335.00
2022-11-25T00:21:08.860Z,101328.41
2022-11-25T00:23:38.938Z,101334.97
2022-11-25T00:26:08.494Z,101334.25
2022-11-25T00:28:36.474Z,101331.59
2022-11-25T00:31:09.116Z,101340.59
2022-11-25T00:33:37.378Z,101334.41
2022-11-25T00:36:06.956Z,101335.44
2022-11-25T00:38:34.839Z,101334.69
2022-11-25T00:41:21.721Z,101342.38
2022-11-25T00:44:07.238Z,101345.44
2022-11-25T00:46:35.262Z,101348.91
2022-11-25T00:49:03.286Z,101346.06
2022-11-25T00:51:31.209Z,101348.91
2022-11-25T00:53:59.465Z,101344.28
2022-11-25T00:56:30.350Z,101345.72
2022-11-25T00:58:59.114Z,101349.75
2022-11-25T01:01:27.686Z,101347.25
2022-11-25T01:03:55.769Z,101345.72
2022-11-25T01:06:24.281Z,101338.25
2022-11-25T01:08:52.238Z,101347.22
2022-11-25T01:11:21.857Z,101348.72
2022-11-25T01:14:00.655Z,101340.00
2022-11-25T01:16:30.249Z,101343.34
2022-11-25T01:18:59.749Z,101351.78
2022-11-25T01:21:29.614Z,101343.31
2022-11-25T01:23:59.541Z,101339.56
2022-11-25T01:26:28.085Z,101340.66
2022-11-25T01:29:00.379Z,101343.72
2022-11-25T01:31:30.829Z,101331.91
2022-11-25T01:34:00.638Z,101338.09
2022-11-25T01:36:29.280Z,101334.22
2022-11-25T01:38:59.371Z,101327.44
2022-11-25T01:41:28.937Z,101332.75
2022-11-25T01:44:13.612Z,101332.88
2022-11-25T01:46:50.706Z,101337.34
2022-11-25T01:49:22.145Z,101332.22
2022-11-25T01:51:54.567Z,101336.41
2022-11-25T01:54:27.051Z,101326.41
2022-11-25T01:57:00.156Z,101322.22
2022-11-25T01:59:33.258Z,101317.91
2022-11-25T02:02:02.204Z,101317.97
2022-11-25T02:04:37.043Z,101312.00
2022-11-25T02:07:10.802Z,101317.09
2022-11-25T02:09:42.464Z,101307.13
2022-11-25T02:12:11.077Z,101301.56
2022-11-25T02:14:41.340Z,101312.88
2022-11-25T02:17:09.380Z,101302.81
2022-11-25T02:19:57.047Z,101301.94
2022-11-25T02:22:32.701Z,101301.63
2022-11-25T02:25:10.601Z,101304.03
2022-11-25T02:27:38.625Z,101312.69
2022-11-25T02:30:07.853Z,101308.84
2022-11-25T02:32:35.749Z,101306.94
2022-11-25T02:35:03.610Z,101305.22
2022-11-25T02:37:31.671Z,101309.53
2022-11-25T02:39:59.750Z,101307.22
2022-11-25T02:42:31.801Z,101310.72
2022-11-25T02:44:59.807Z,101311.81
2022-11-25T02:47:27.661Z,101311.06
2022-11-25T02:49:55.486Z,101311.91
2022-11-25T02:52:23.315Z,101322.56
2022-11-25T02:54:51.228Z,101316.84
2022-11-25T02:57:19.077Z,101318.13
2022-11-25T02:59:49.477Z,101318.28
2022-11-25T03:02:17.525Z,101324.69
2022-11-25T03:04:45.502Z,101324.34
2022-11-25T03:07:13.388Z,101325.31
2022-11-25T03:09:41.594Z,101331.22
2022-11-25T03:12:21.477Z,101325.34
2022-11-25T03:14:55.772Z,101347.88
2022-11-25T03:17:23.936Z,101345.44
2022-11-25T03:19:51.792Z,101334.69
2022-11-25T03:22:19.641Z,101335.72
2022-11-25T03:24:47.508Z,101337.03
2022-11-25T03:27:15.358Z,101340.56
2022-11-25T03:29:43.679Z,101335.84
2022-11-25T03:32:13.258Z,101336.66
2022-11-25T03:34:41.555Z,101327.75
2022-11-25T03:37:09.809Z,101330.78
2022-11-25T03:39:38.552Z,101329.56
2022-11-25T03:42:08.348Z,101329.81
2022-11-25T03:44:36.553Z,101338.06
2022-11-25T03:47:05.163Z,101336.94
2022-11-25T03:49:35.054Z,101326.91
2022-11-25T03:52:03.202Z,101332.94
2022-11-25T03:54:32.006Z,101330.69
2022-11-25T03:57:13.317Z,101326.59
2022-11-25T03:59:41.215Z,101334.38
2022-11-25T04:02:09.464Z,101326.38
2022-11-25T04:04:39.241Z,101325.34
2022-11-25T04:07:07.277Z,101329.69
2022-11-25T04:09:35.579Z,101330.72
2022-11-25T04:12:24.657Z,101336.59
2022-11-25T04:14:56.414Z,101346.06
2022-11-25T04:17:24.314Z,101347.09
2022-11-25T04:19:54.118Z,101345.78
2022-11-25T04:22:21.999Z,101341.69
2022-11-25T04:24:50.835Z,101350.09
2022-11-25T04:27:24.736Z,101352.25
2022-11-25T04:29:53.833Z,101352.00
2022-11-25T04:32:22.963Z,101357.56
2022-11-25T04:34:50.891Z,101343.91
2022-11-25T04:37:20.739Z,101344.09
2022-11-25T04:39:49.469Z,101344.94
2022-11-25T04:42:34.549Z,101347.81
2022-11-25T04:45:22.430Z,101352.00
2022-11-25T04:47:51.734Z,101350.22
2022-11-25T04:50:23.056Z,101355.91
2022-11-25T04:53:01.933Z,101350.75
2022-11-25T04:55:30.147Z,101351.91
2022-11-25T04:58:00.637Z,101359.75
2022-11-25T05:00:29.103Z,101361.69
2022-11-25T05:02:58.216Z,101353.97
2022-11-25T05:05:26.359Z,101346.59
2022-11-25T05:07:54.240Z,101347.28
2022-11-25T05:10:23.643Z,101344.94
2022-11-25T05:12:51.926Z,101352.78
2022-11-25T05:15:22.820Z,101353.78
2022-11-25T05:17:50.641Z,101357.91
2022-11-25T05:20:33.845Z,101355.16
2022-11-25T05:23:01.835Z,101363.84
2022-11-25T05:25:32.760Z,101362.03
2022-11-25T05:28:19.029Z,101366.50
2022-11-25T05:30:47.645Z,101372.25
2022-11-25T05:33:16.635Z,101369.66
2022-11-25T05:35:45.058Z,101366.59
2022-11-25T05:38:13.199Z,101376.50
2022-11-25T05:40:42.450Z,101380.75
2022-11-25T05:43:13.983Z,101375.84
2022-11-25T05:45:43.097Z,101377.25
2022-11-25T05:48:12.699Z,101378.13
2022-11-25T05:50:41.154Z,101378.13
2022-11-25T05:53:17.351Z,101381.75
2022-11-25T05:55:56.175Z,101378.50
2022-11-25T05:58:41.023Z,101375.84
2022-11-25T06:01:09.616Z,101375.53
2022-11-25T06:03:38.518Z,101381.97
2022-11-25T06:06:07.599Z,101376.31
2022-11-25T06:08:36.723Z,101379.69
2022-11-25T06:11:08.201Z,101375.09
2022-11-25T06:13:36.801Z,101382.66
2022-11-25T06:16:09.780Z,101371.72
2022-11-25T06:18:38.849Z,101373.56
2022-11-25T06:21:10.092Z,101378.91
2022-11-25T06:23:38.951Z,101381.03
2022-11-25T06:26:11.307Z,101373.13
2022-11-25T06:28:39.893Z,101369.84
2022-11-25T06:31:09.455Z,101370.94
2022-11-25T06:33:42.894Z,101374.53
2022-11-25T06:36:16.919Z,101369.63
2022-11-25T06:38:45.082Z,101373.38
2022-11-25T06:41:15.447Z,101374.97
2022-11-25T06:43:43.309Z,101378.53
2022-11-25T06:46:13.332Z,101387.44
2022-11-25T06:48:41.442Z,101389.34
2022-11-25T06:51:12.622Z,101382.22
2022-11-25T06:53:41.273Z,101398.03
2022-11-25T06:56:12.079Z,101396.53
2022-11-25T06:58:43.029Z,101403.63
2022-11-25T07:01:16.385Z,101400.97
2022-11-25T07:03:45.396Z,101402.53
2022-11-25T07:06:14.230Z,101412.50
2022-11-25T07:08:42.482Z,101411.56
2022-11-25T07:11:15.818Z,101421.19
2022-11-25T07:13:45.326Z,101419.50
2022-11-25T07:16:14.025Z,101428.50
2022-11-25T07:18:42.764Z,101425.31
2022-11-25T07:21:14.077Z,101435.06
2022-11-25T07:23:43.319Z,101440.44
2022-11-25T07:26:13.001Z,101444.69
2022-11-25T07:28:41.220Z,101443.47
2022-11-25T07:31:24.310Z,101443.16
2022-11-25T07:33:53.706Z,101449.59
2022-11-25T07:36:21.853Z,101456.53
2022-11-25T07:38:49.688Z,101448.28
2022-11-25T07:41:19.403Z,101455.25
2022-11-25T07:43:48.109Z,101450.81
2022-11-25T07:46:26.493Z,101452.53
2022-11-25T07:48:56.439Z,101443.66
2022-11-25T07:51:26.629Z,101437.94
2022-11-25T07:53:55.632Z,101442.75
2022-11-25T07:56:24.360Z,101442.53
2022-11-25T07:58:52.274Z,101433.97
2022-11-25T08:01:22.243Z,101438.63
2022-11-25T08:03:51.551Z,101432.09
2022-11-25T08:06:21.176Z,101436.69
2022-11-25T08:08:49.895Z,101440.41
2022-11-25T08:11:20.487Z,101437.72
2022-11-25T08:13:48.997Z,101442.06
2022-11-25T08:16:19.420Z,101450.19
2022-11-25T08:18:49.330Z,101447.47
2022-11-25T08:21:18.864Z,101455.69
2022-11-25T08:23:48.959Z,101451.22
2022-11-25T08:26:18.669Z,101461.59
2022-11-25T08:28:48.037Z,101452.66
2022-11-25T08:31:18.441Z,101457.34
2022-11-25T08:33:46.911Z,101458.69
2022-11-25T08:36:17.102Z,101457.94
2022-11-25T08:38:46.078Z,101454.97
2022-11-25T08:41:16.288Z,101463.03
2022-11-25T08:43:44.751Z,101465.41
2022-11-25T08:46:16.132Z,101459.03
2022-11-25T08:48:44.260Z,101463.63
2022-11-25T08:51:15.087Z,101463.28
2022-11-25T08:53:44.962Z,101460.78
2022-11-25T08:56:13.865Z,101451.41
2022-11-25T08:58:42.009Z,101453.69
2022-11-25T09:01:10.544Z,101460.03
2022-11-25T09:03:42.164Z,101456.53
2022-11-25T09:06:11.715Z,101453.00
2022-11-25T09:08:41.477Z,101458.94
2022-11-25T09:11:11.094Z,101465.72
2022-11-25T09:13:39.434Z,101462.44
2022-11-25T09:16:08.978Z,101476.91
2022-11-25T09:18:37.364Z,101482.66
2022-11-25T09:21:10.230Z,101469.22
2022-11-25T09:23:38.603Z,101477.13
2022-11-25T09:26:07.778Z,101478.56
2022-11-25T09:28:37.690Z,101469.34
2022-11-25T09:31:09.409Z,101474.22
2022-11-25T09:33:37.483Z,101472.50
2022-11-25T09:36:06.151Z,101471.56
2022-11-25T09:38:37.702Z,101466.47
2022-11-25T09:41:39.038Z,101466.66
2022-11-25T09:44:44.135Z,101466.16
2022-11-25T09:47:19.101Z,101460.88
2022-11-25T09:50:03.788Z,101461.53
2022-11-25T09:52:41.342Z,101453.41
2022-11-25T09:55:16.433Z,101449.19
2022-11-25T09:57:59.704Z,101450.50
2022-11-25T10:00:38.659Z,101450.94
2022-11-25T10:03:14.335Z,101445.09
2022-11-25T10:05:47.301Z,101440.22
2022-11-25T10:08:20.287Z,101435.13
2022-11-25T10:10:51.090Z,101440.94
2022-11-25T10:13:26.471Z,101439.59
2022-11-25T10:16:00.675Z,101444.91
2022-11-25T10:18:34.196Z,101445.94
2022-11-25T10:21:01.893Z,101451.34
2022-11-25T10:23:34.951Z,101454.88
2022-11-25T10:26:12.423Z,101443.69
2022-11-25T10:28:42.534Z,101446.97
2022-11-25T10:31:18.229Z,101451.84
2022-11-25T10:33:48.175Z,101454.03
2022-11-25T10:36:19.929Z,101448.38
2022-11-25T10:38:56.977Z,101435.53
2022-11-25T10:41:28.428Z,101441.88
2022-11-25T10:43:56.364Z,101432.34
2022-11-25T10:46:50.101Z,101446.59
2022-11-25T10:49:30.967Z,101453.63
2022-11-25T10:51:58.963Z,101460.47
2022-11-25T10:54:30.205Z,101447.84
2022-11-25T10:57:00.299Z,101454.25
2022-11-25T10:59:30.523Z,101454.09
2022-11-25T11:02:19.168Z,101447.41
2022-11-25T11:04:54.142Z,101445.91
2022-11-25T11:07:22.475Z,101442.75
2022-11-25T11:09:50.625Z,101455.34
2022-11-25T11:12:22.596Z,101458.19
2022-11-25T11:14:50.906Z,101461.22
2022-11-25T11:17:36.023Z,101449.88
2022-11-25T11:20:16.028Z,101440.28
2022-11-25T11:22:50.791Z,101447.56
2022-11-25T11:25:31.158Z,101448.88
2022-11-25T11:27:59.762Z,101447.34
2022-11-25T11:30:29.531Z,101443.34
2022-11-25T11:33:03.087Z,101444.53
2022-11-25T11:35:44.594Z,101437.13
2022-11-25T11:38:32.628Z,101433.28
2022-11-25T11:41:13.270Z,101429.72
2022-11-25T11:43:56.463Z,101430.31
2022-11-25T11:46:35.206Z,101434.66
2022-11-25T11:49:30.410Z,101429.03
2022-11-25T11:52:06.205Z,101429.13
2022-11-25T11:54:37.769Z,101430.53
2022-11-25T11:57:09.145Z,101433.59
2022-11-25T11:59:48.968Z,101423.16
2022-11-25T12:02:24.194Z,101425.50
2022-11-25T12:05:00.415Z,101420.31
2022-11-25T12:07:34.758Z,101416.16
2022-11-25T12:10:06.663Z,101410.84
2022-11-25T12:12:39.084Z,101417.72
2022-11-25T12:15:13.925Z,101412.69
2022-11-25T12:17:48.452Z,101420.78
2022-11-25T12:20:23.521Z,101411.00
2022-11-25T12:22:57.181Z,101411.38
2022-11-25T12:25:29.492Z,101412.59
2022-11-25T12:28:02.420Z,101414.41
2022-11-25T12:30:36.165Z,101406.97
2022-11-25T12:33:11.686Z,101409.16
2022-11-25T12:35:47.417Z,101410.63
2022-11-25T12:38:26.284Z,101418.97
2022-11-25T12:41:02.274Z,101418.59
2022-11-25T12:43:40.774Z,101412.91
2022-11-25T12:46:18.209Z,101423.00
2022-11-25T12:48:46.220Z,101410.25
2022-11-25T12:51:25.796Z,101420.41
2022-11-25T12:54:06.875Z,101424.50
2022-11-25T12:56:56.581Z,101421.63
2022-11-25T12:59:44.321Z,101416.88
2022-11-25T13:02:57.768Z,101422.16
2022-11-25T13:05:54.719Z,101409.06
2022-11-25T13:08:38.127Z,101418.25
2022-11-25T13:11:24.987Z,101421.25
2022-11-25T13:14:01.053Z,101423.59
2022-11-25T13:16:30.055Z,101424.53
2022-11-25T13:18:58.793Z,101429.69
2022-11-25T13:21:29.027Z,101430.56
2022-11-25T13:23:59.169Z,101445.16
2022-11-25T13:26:49.817Z,101449.16
2022-11-25T13:29:53.485Z,101442.66
2022-11-25T13:32:44.134Z,101448.00
2022-11-25T13:35:47.871Z,101450.75
2022-11-25T13:38:58.833Z,101461.44
2022-11-25T13:41:38.499Z,101467.28
2022-11-25T13:44:12.142Z,101471.75
2022-11-25T13:46:43.293Z,101465.78
2022-11-25T13:49:24.727Z,101464.59
2022-11-25T13:51:55.602Z,101476.16
2022-11-25T13:54:28.298Z,101472.50
2022-11-25T13:57:20.825Z,101484.88
2022-11-25T13:59:54.997Z,101482.84
2022-11-25T14:02:46.001Z,101478.78
2022-11-25T14:05:46.477Z,101484.38
2022-11-25T14:08:27.530Z,101484.59
2022-11-25T14:11:11.573Z,101480.16
2022-11-25T14:14:05.419Z,101486.97
2022-11-25T14:16:42.782Z,101493.84
2022-11-25T14:19:56.231Z,101498.72
2022-11-25T14:22:51.874Z,101499.63
2022-11-25T14:25:23.908Z,101496.78
2022-11-25T14:28:03.673Z,101496.81
2022-11-25T14:30:35.081Z,101498.38
2022-11-25T14:33:05.786Z,101497.06
2022-11-25T14:35:44.819Z,101501.78
2022-11-25T14:38:17.276Z,101497.47
2022-11-25T14:40:54.626Z,101507.47
2022-11-25T14:43:24.643Z,101511.09
2022-11-25T14:46:12.494Z,101510.06
2022-11-25T14:48:40.396Z,101508.34
2022-11-25T14:51:09.864Z,101509.00
2022-11-25T14:53:47.329Z,101521.47
2022-11-25T14:56:22.080Z,101516.22
2022-11-25T14:58:52.793Z,101523.88
2022-11-25T15:01:24.772Z,101525.31
2022-11-25T15:04:01.640Z,101519.28
2022-11-25T15:06:30.239Z,101528.38
2022-11-25T15:08:59.908Z,101526.16
2022-11-25T15:11:32.826Z,101527.34
2022-11-25T15:14:02.469Z,101526.72
2022-11-25T15:16:38.725Z,101527.81
2022-11-25T15:19:15.856Z,101533.06
2022-11-25T15:22:14.881Z,101534.63
2022-11-25T15:24:41.315Z,101529.44
2022-11-25T15:27:17.253Z,101531.56
2022-11-25T15:29:47.417Z,101532.44
2022-11-25T15:32:19.774Z,101534.41
2022-11-25T15:34:48.738Z,101533.28
2022-11-25T15:37:16.591Z,101535.88
2022-11-25T15:39:44.661Z,101537.25
2022-11-25T15:42:18.203Z,101534.31
2022-11-25T15:44:51.541Z,101536.28
2022-11-25T15:47:24.303Z,101532.91
2022-11-25T15:50:01.366Z,101537.47
2022-11-25T15:52:32.596Z,101543.03
2022-11-25T15:55:04.420Z,101541.69
2022-11-25T15:57:35.504Z,101544.19
2022-11-25T16:00:15.971Z,101539.50
2022-11-25T16:02:54.554Z,101538.41
2022-11-25T16:05:32.054Z,101543.25
2022-11-25T16:08:02.958Z,101546.06
2022-11-25T16:10:34.007Z,101543.56
2022-11-25T16:13:30.908Z,101547.28
2022-11-25T16:16:09.740Z,101549.84
2022-11-25T16:18:42.368Z,101546.47
2022-11-25T16:21:14.169Z,101546.97
2022-11-25T16:23:46.729Z,101549.28
2022-11-25T16:26:17.744Z,101557.78
2022-11-25T16:28:53.068Z,101552.13
2022-11-25T16:31:21.394Z,101545.34
2022-11-25T16:33:51.403Z,101558.66
2022-11-25T16:36:19.243Z,101556.88
2022-11-25T16:38:47.060Z,101563.56
2022-11-25T16:41:21.784Z,101549.34
2022-11-25T16:43:49.667Z,101563.22
2022-11-25T16:46:19.881Z,101552.25
2022-11-25T16:48:50.128Z,101565.63
2022-11-25T16:51:19.569Z,101563.25
2022-11-25T16:53:48.379Z,101562.22
2022-11-25T16:56:19.755Z,101553.81
2022-11-25T16:58:47.625Z,101553.81
2022-11-25T17:01:18.339Z,101567.28
2022-11-25T17:03:46.241Z,101561.38
2022-11-25T17:06:21.963Z,101563.69
2022-11-25T17:08:51.488Z,101564.16
2022-11-25T17:11:22.507Z,101565.88
2022-11-25T17:13:52.683Z,101567.59
2022-11-25T17:16:23.793Z,101566.47
2022-11-25T17:18:54.283Z,101570.34
2022-11-25T17:21:26.860Z,101571.22
2022-11-25T17:23:55.855Z,101575.22
2022-11-25T17:26:27.339Z,101576.56
2022-11-25T17:28:57.788Z,101580.19
2022-11-25T17:31:28.614Z,101577.16
2022-11-25T17:33:56.968Z,101578.09
2022-11-25T17:36:26.783Z,101590.50
2022-11-25T17:38:54.881Z,101585.28
2022-11-25T17:41:25.296Z,101594.44
2022-11-25T17:43:54.469Z,101597.44
2022-11-25T17:46:24.786Z,101596.03
2022-11-25T17:48:52.744Z,101598.66
2022-11-25T17:51:20.593Z,101594.78
2022-11-25T17:53:49.891Z,101594.69
2022-11-25T17:56:23.484Z,101600.31
2022-11-25T17:58:52.277Z,101598.78
2022-11-25T18:01:20.564Z,101602.41
2022-11-25T18:03:52.172Z,101606.63
2022-11-25T18:06:20.266Z,101606.13
2022-11-25T18:08:49.712Z,101612.16
2022-11-25T18:11:19.583Z,101611.47
2022-11-25T18:13:48.531Z,101618.75
2022-11-25T18:16:20.520Z,101620.00
2022-11-25T18:18:50.542Z,101628.56
2022-11-25T18:21:18.507Z,101621.78
2022-11-25T18:23:46.587Z,101621.44
2022-11-25T18:26:16.037Z,101626.66
2022-11-25T18:28:43.950Z,101631.50
2022-11-25T18:31:12.745Z,101622.38
2022-11-25T18:33:40.710Z,101622.38
2022-11-25T18:36:13.721Z,101620.28
2022-11-25T18:38:41.572Z,101624.31
2022-11-25T18:41:20.772Z,101635.00
2022-11-25T18:43:48.681Z,101629.91
2022-11-25T18:46:16.648Z,101636.38
2022-11-25T18:48:44.733Z,101643.53
2022-11-25T18:51:14.408Z,101642.50
2022-11-25T18:53:42.257Z,101639.75
2022-11-25T18:56:17.807Z,101650.22
2022-11-25T18:58:51.453Z,101656.53
2022-11-25T19:01:21.349Z,101649.88
2022-11-25T19:03:49.552Z,101654.22
2022-11-25T19:06:18.067Z,101660.06
2022-11-25T19:08:45.904Z,101658.44
2022-11-25T19:11:17.429Z,101659.16
2022-11-25T19:13:50.816Z,101653.47
2022-11-25T19:16:21.885Z,101659.78
2022-11-25T19:18:50.430Z,101668.19
2022-11-25T19:21:20.750Z,101670.38
2022-11-25T19:23:48.978Z,101671.41
2022-11-25T19:26:20.176Z,101680.06
2022-11-25T19:28:52.752Z,101689.72
2022-11-25T19:31:21.533Z,101672.41
2022-11-25T19:33:52.252Z,101680.88
2022-11-25T19:36:24.782Z,101682.09
2022-11-25T19:38:53.425Z,101686.16
2022-11-25T19:41:21.666Z,101694.63
2022-11-25T19:43:51.208Z,101696.84
2022-11-25T19:46:30.107Z,101691.09
2022-11-25T19:49:06.601Z,101704.16
2022-11-25T19:51:35.780Z,101708.81
2022-11-25T19:54:03.709Z,101713.00
2022-11-25T19:56:31.623Z,101712.59
2022-11-25T19:59:00.956Z,101713.44
2022-11-25T20:01:33.956Z,101719.84
2022-11-25T20:04:03.209Z,101722.03
2022-11-25T20:06:31.606Z,101729.13
2022-11-25T20:09:06.392Z,101730.84
2022-11-25T20:11:36.958Z,101735.88
2022-11-25T20:14:06.532Z,101733.34
2022-11-25T20:16:37.855Z,101739.63
2022-11-25T20:19:06.972Z,101743.38
2022-11-25T20:21:37.635Z,101756.69
2022-11-25T20:24:11.718Z,101751.66
2022-11-25T20:26:45.854Z,101754.59
2022-11-25T20:29:17.176Z,101754.66
2022-11-25T20:31:45.411Z,101755.78
2022-11-25T20:34:13.352Z,101768.69
2022-11-25T20:36:43.069Z,101762.44
2022-11-25T20:39:18.058Z,101770.69
2022-11-25T20:41:49.733Z,101766.63
2022-11-25T20:44:19.882Z,101769.53
2022-11-25T20:46:48.158Z,101782.41
2022-11-25T20:49:22.336Z,101776.72
2022-11-25T20:51:50.724Z,101780.44
2022-11-25T20:54:18.751Z,101786.19
2022-11-25T20:56:46.627Z,101779.56
2022-11-25T20:59:22.065Z,101789.63
2022-11-25T21:01:50.223Z,101792.38
2022-11-25T21:04:18.396Z,101792.84
2022-11-25T21:06:46.370Z,101789.50
2022-11-25T21:09:20.061Z,101796.47
2022-11-25T21:11:48.301Z,101802.59
2022-11-25T21:14:18.116Z,101810.25
2022-11-25T21:16:48.166Z,101799.06
2022-11-25T21:19:16.299Z,101802.53
2022-11-25T21:21:47.786Z,101805.00
2022-11-25T21:24:27.711Z,101801.44
2022-11-25T21:26:56.006Z,101812.91
2022-11-25T21:29:23.907Z,101811.50
2022-11-25T21:31:53.158Z,101811.59
2022-11-25T21:34:21.383Z,101815.81
2022-11-25T21:36:52.437Z,101807.78
2022-11-25T21:39:28.674Z,101814.69
2022-11-25T21:41:59.107Z,101820.22
2022-11-25T21:44:31.810Z,101821.16
2022-11-25T21:47:01.091Z,101829.81
2022-11-25T21:49:28.952Z,101821.88
2022-11-25T21:51:56.828Z,101824.88
2022-11-25T21:54:24.673Z,101826.72
2022-11-25T21:56:52.986Z,101826.34
2022-11-25T21:59:21.738Z,101832.06
2022-11-25T22:01:49.949Z,101838.06
2022-11-25T22:04:22.328Z,101843.25
2022-11-25T22:06:51.060Z,101841.28
2022-11-25T22:09:19.215Z,101843.88
2022-11-25T22:11:50.361Z,101842.91
2022-11-25T22:14:27.532Z,101845.63
2022-11-25T22:16:56.626Z,101853.19
2022-11-25T22:19:28.422Z,101850.09
2022-11-25T22:21:56.454Z,101854.78
2022-11-25T22:24:24.475Z,101854.25
2022-11-25T22:26:57.683Z,101866.13
2022-11-25T22:29:31.751Z,101868.00
2022-11-25T22:31:59.672Z,101861.47
2022-11-25T22:34:29.269Z,101876.03
2022-11-25T22:36:57.142Z,101880.75
2022-11-25T22:39:27.340Z,101873.50
2022-11-25T22:41:57.485Z,101883.97
2022-11-25T22:44:32.501Z,101885.41
2022-11-25T22:47:00.825Z,101886.25
2022-11-25T22:49:35.582Z,101893.00
2022-11-25T22:52:03.843Z,101893.22
2022-11-25T22:54:31.694Z,101904.47
2022-11-25T22:56:59.967Z,101905.94
2022-11-25T22:59:27.808Z,101903.16
2022-11-25T23:01:55.857Z,101896.63
2022-11-25T23:04:23.764Z,101906.16
2022-11-25T23:06:55.206Z,101910.84
2022-11-25T23:09:23.230Z,101905.81
2022-11-25T23:11:51.076Z,101910.56
2022-11-25T23:14:18.875Z,101916.50
2022-11-25T23:16:46.883Z,101915.66
2022-11-25T23:19:16.952Z,101914.94
2022-11-25T23:21:46.479Z,101922.44
2022-11-25T23:24:18.004Z,101925.31
2022-11-25T23:26:46.199Z,101927.13
2022-11-25T23:29:14.013Z,101933.50
2022-11-25T23:31:41.989Z,101937.63
2022-11-25T23:34:13.482Z,101933.19
2022-11-25T23:36:45.659Z,101939.63
2022-11-25T23:39:20.231Z,101934.53
2022-11-25T23:41:48.812Z,101937.13
2022-11-25T23:44:23.591Z,101926.25
2022-11-25T23:46:52.766Z,101940.41
2022-11-25T23:49:24.603Z,101935.59
2022-11-25T23:51:53.180Z,101937.28
2022-11-25T23:54:23.273Z,101939.78
2022-11-25T23:56:51.188Z,101943.25
2022-11-25T23:59:19.027Z,101947.47
